sensor_id;sensor_type;location;lat;lon;timestamp;P1;durP1;ratioP1;P2;durP2;ratioP2
8538;SDS011;4307;53.868;11.680;2023-05-10T00:01:19;4.37;;;3.40;;
8538;SDS011;4307;53.868;11.680;2023-05-10T00:03:46;6.27;;;3.57;;
8538;SDS011;4307;53.868;11.680;2023-05-10T00:06:12;3.77;;;3.30;;
8538;SDS011;4307;53.868;11.680;2023-05-10T00:08:39;4.00;;;3.40;;
8538;SDS011;4307;53.868;11.680;2023-05-10T00:11:07;6.10;;;3.53;;
8538;SDS011;4307;53.868;11.680;2023-05-10T00:13:34;3.80;;;3.50;;
8538;SDS011;4307;53.868;11.680;2023-05-10T00:16:00;5.03;;;3.20;;
8538;SDS011;4307;53.868;11.680;2023-05-10T00:18:27;4.67;;;3.00;;
8538;SDS011;4307;53.868;11.680;2023-05-10T00:20:54;5.30;;;3.40;;
8538;SDS011;4307;53.868;11.680;2023-05-10T00:23:20;4.10;;;3.70;;
8538;SDS011;4307;53.868;11.680;2023-05-10T00:25:47;8.53;;;3.47;;
8538;SDS011;4307;53.868;11.680;2023-05-10T00:28:15;3.73;;;3.30;;
8538;SDS011;4307;53.868;11.680;2023-05-10T00:30:41;6.10;;;3.43;;
8538;SDS011;4307;53.868;11.680;2023-05-10T00:33:08;6.17;;;3.70;;
8538;SDS011;4307;53.868;11.680;2023-05-10T00:35:36;6.40;;;3.50;;
8538;SDS011;4307;53.868;11.680;2023-05-10T00:38:03;4.63;;;3.50;;
8538;SDS011;4307;53.868;11.680;2023-05-10T00:40:30;4.73;;;3.33;;
8538;SDS011;4307;53.868;11.680;2023-05-10T00:42:56;5.03;;;3.77;;
8538;SDS011;4307;53.868;11.680;2023-05-10T00:45:25;4.27;;;3.17;;
8538;SDS011;4307;53.868;11.680;2023-05-10T00:47:52;4.07;;;3.50;;
8538;SDS011;4307;53.868;11.680;2023-05-10T00:50:20;6.53;;;4.10;;
8538;SDS011;4307;53.868;11.680;2023-05-10T00:52:47;5.37;;;3.97;;
8538;SDS011;4307;53.868;11.680;2023-05-10T00:55:14;4.47;;;4.00;;
8538;SDS011;4307;53.868;11.680;2023-05-10T00:57:40;6.70;;;4.00;;
8538;SDS011;4307;53.868;11.680;2023-05-10T01:00:08;5.03;;;3.83;;
8538;SDS011;4307;53.868;11.680;2023-05-10T01:02:37;5.43;;;3.70;;
8538;SDS011;4307;53.868;11.680;2023-05-10T01:05:04;5.77;;;3.60;;
8538;SDS011;4307;53.868;11.680;2023-05-10T01:07:32;3.40;;;3.20;;
8538;SDS011;4307;53.868;11.680;2023-05-10T01:09:58;9.70;;;4.13;;
8538;SDS011;4307;53.868;11.680;2023-05-10T01:12:26;4.37;;;3.90;;
8538;SDS011;4307;53.868;11.680;2023-05-10T01:14:52;9.50;;;4.13;;
8538;SDS011;4307;53.868;11.680;2023-05-10T01:17:20;4.23;;;3.60;;
8538;SDS011;4307;53.868;11.680;2023-05-10T01:19:49;4.83;;;3.70;;
8538;SDS011;4307;53.868;11.680;2023-05-10T01:22:25;4.30;;;3.90;;
8538;SDS011;4307;53.868;11.680;2023-05-10T01:25:13;5.53;;;4.00;;
8538;SDS011;4307;53.868;11.680;2023-05-10T01:28:03;3.77;;;3.23;;
8538;SDS011;4307;53.868;11.680;2023-05-10T01:30:50;4.93;;;3.70;;
8538;SDS011;4307;53.868;11.680;2023-05-10T01:33:43;4.20;;;3.80;;
8538;SDS011;4307;53.868;11.680;2023-05-10T01:36:16;5.67;;;3.63;;
8538;SDS011;4307;53.868;11.680;2023-05-10T01:38:53;5.70;;;3.60;;
8538;SDS011;4307;53.868;11.680;2023-05-10T01:41:26;3.87;;;3.47;;
8538;SDS011;4307;53.868;11.680;2023-05-10T01:44:00;6.43;;;3.77;;
8538;SDS011;4307;53.868;11.680;2023-05-10T01:46:32;4.37;;;3.93;;
8538;SDS011;4307;53.868;11.680;2023-05-10T01:49:03;4.20;;;3.63;;
8538;SDS011;4307;53.868;11.680;2023-05-10T01:51:36;4.60;;;4.13;;
8538;SDS011;4307;53.868;11.680;2023-05-10T01:54:07;3.77;;;3.47;;
8538;SDS011;4307;53.868;11.680;2023-05-10T01:56:36;5.67;;;4.33;;
8538;SDS011;4307;53.868;11.680;2023-05-10T01:59:06;5.53;;;4.47;;
8538;SDS011;4307;53.868;11.680;2023-05-10T02:01:37;5.10;;;4.33;;
8538;SDS011;4307;53.868;11.680;2023-05-10T02:04:06;6.70;;;4.20;;
8538;SDS011;4307;53.868;11.680;2023-05-10T02:06:34;4.27;;;3.77;;
8538;SDS011;4307;53.868;11.680;2023-05-10T02:09:03;4.40;;;3.97;;
8538;SDS011;4307;53.868;11.680;2023-05-10T02:11:32;7.50;;;4.00;;
8538;SDS011;4307;53.868;11.680;2023-05-10T02:13:59;4.57;;;3.83;;
8538;SDS011;4307;53.868;11.680;2023-05-10T02:16:27;7.33;;;4.03;;
8538;SDS011;4307;53.868;11.680;2023-05-10T02:18:55;4.67;;;4.10;;
8538;SDS011;4307;53.868;11.680;2023-05-10T02:21:26;4.93;;;4.10;;
8538;SDS011;4307;53.868;11.680;2023-05-10T02:23:55;5.00;;;4.20;;
8538;SDS011;4307;53.868;11.680;2023-05-10T02:26:23;9.43;;;3.97;;
8538;SDS011;4307;53.868;11.680;2023-05-10T02:28:52;6.20;;;4.00;;
8538;SDS011;4307;53.868;11.680;2023-05-10T02:31:20;7.27;;;4.40;;
8538;SDS011;4307;53.868;11.680;2023-05-10T02:33:47;6.00;;;4.13;;
8538;SDS011;4307;53.868;11.680;2023-05-10T02:36:14;5.30;;;4.30;;
8538;SDS011;4307;53.868;11.680;2023-05-10T02:38:43;5.93;;;3.73;;
8538;SDS011;4307;53.868;11.680;2023-05-10T02:41:11;5.37;;;4.53;;
8538;SDS011;4307;53.868;11.680;2023-05-10T02:43:39;6.00;;;4.30;;
8538;SDS011;4307;53.868;11.680;2023-05-10T02:46:06;6.50;;;5.07;;
8538;SDS011;4307;53.868;11.680;2023-05-10T02:48:33;6.73;;;4.23;;
8538;SDS011;4307;53.868;11.680;2023-05-10T02:51:00;5.73;;;4.60;;
8538;SDS011;4307;53.868;11.680;2023-05-10T02:53:31;4.60;;;4.17;;
8538;SDS011;4307;53.868;11.680;2023-05-10T02:56:04;4.87;;;3.80;;
8538;SDS011;4307;53.868;11.680;2023-05-10T02:58:34;5.53;;;3.90;;
8538;SDS011;4307;53.868;11.680;2023-05-10T03:01:00;6.17;;;4.50;;
8538;SDS011;4307;53.868;11.680;2023-05-10T03:03:27;5.60;;;4.67;;
8538;SDS011;4307;53.868;11.680;2023-05-10T03:05:53;8.43;;;4.60;;
8538;SDS011;4307;53.868;11.680;2023-05-10T03:08:21;5.23;;;4.40;;
8538;SDS011;4307;53.868;11.680;2023-05-10T03:10:52;5.90;;;4.37;;
8538;SDS011;4307;53.868;11.680;2023-05-10T03:13:42;4.67;;;4.20;;
8538;SDS011;4307;53.868;11.680;2023-05-10T03:16:15;6.10;;;4.30;;
8538;SDS011;4307;53.868;11.680;2023-05-10T03:18:49;5.73;;;4.53;;
8538;SDS011;4307;53.868;11.680;2023-05-10T03:21:22;5.37;;;4.23;;
8538;SDS011;4307;53.868;11.680;2023-05-10T03:23:53;6.13;;;4.20;;
8538;SDS011;4307;53.868;11.680;2023-05-10T03:26:26;6.27;;;4.60;;
8538;SDS011;4307;53.868;11.680;2023-05-10T03:28:55;4.43;;;4.03;;
8538;SDS011;4307;53.868;11.680;2023-05-10T03:31:23;5.20;;;4.20;;
8538;SDS011;4307;53.868;11.680;2023-05-10T03:33:50;8.33;;;4.80;;
8538;SDS011;4307;53.868;11.680;2023-05-10T03:36:18;5.20;;;4.30;;
8538;SDS011;4307;53.868;11.680;2023-05-10T03:38:45;6.47;;;4.27;;
8538;SDS011;4307;53.868;11.680;2023-05-10T03:41:12;5.80;;;4.47;;
8538;SDS011;4307;53.868;11.680;2023-05-10T03:43:38;8.03;;;4.60;;
8538;SDS011;4307;53.868;11.680;2023-05-10T03:46:07;7.97;;;4.63;;
8538;SDS011;4307;53.868;11.680;2023-05-10T03:48:34;7.53;;;4.77;;
8538;SDS011;4307;53.868;11.680;2023-05-10T03:51:00;7.93;;;4.63;;
8538;SDS011;4307;53.868;11.680;2023-05-10T03:53:27;6.07;;;5.13;;
8538;SDS011;4307;53.868;11.680;2023-05-10T03:55:54;6.20;;;5.03;;
8538;SDS011;4307;53.868;11.680;2023-05-10T03:58:20;6.63;;;4.67;;
8538;SDS011;4307;53.868;11.680;2023-05-10T04:00:47;7.50;;;4.73;;
8538;SDS011;4307;53.868;11.680;2023-05-10T04:03:15;6.37;;;4.70;;
8538;SDS011;4307;53.868;11.680;2023-05-10T04:05:42;4.93;;;4.07;;
8538;SDS011;4307;53.868;11.680;2023-05-10T04:08:08;6.33;;;4.70;;
8538;SDS011;4307;53.868;11.680;2023-05-10T04:10:35;6.67;;;4.30;;
8538;SDS011;4307;53.868;11.680;2023-05-10T04:13:02;7.90;;;4.73;;
8538;SDS011;4307;53.868;11.680;2023-05-10T04:15:28;5.00;;;4.30;;
8538;SDS011;4307;53.868;11.680;2023-05-10T04:17:55;5.27;;;4.23;;
8538;SDS011;4307;53.868;11.680;2023-05-10T04:20:23;8.03;;;4.50;;
8538;SDS011;4307;53.868;11.680;2023-05-10T04:22:50;6.13;;;4.80;;
8538;SDS011;4307;53.868;11.680;2023-05-10T04:25:16;4.90;;;4.40;;
8538;SDS011;4307;53.868;11.680;2023-05-10T04:27:43;8.03;;;4.10;;
8538;SDS011;4307;53.868;11.680;2023-05-10T04:30:10;5.10;;;4.23;;
8538;SDS011;4307;53.868;11.680;2023-05-10T04:32:37;5.07;;;4.57;;
8538;SDS011;4307;53.868;11.680;2023-05-10T04:35:04;5.33;;;4.53;;
8538;SDS011;4307;53.868;11.680;2023-05-10T04:37:32;4.60;;;4.20;;
8538;SDS011;4307;53.868;11.680;2023-05-10T04:39:59;6.00;;;5.03;;
8538;SDS011;4307;53.868;11.680;2023-05-10T04:42:26;6.23;;;4.40;;
8538;SDS011;4307;53.868;11.680;2023-05-10T04:44:52;6.03;;;4.23;;
8538;SDS011;4307;53.868;11.680;2023-05-10T04:47:19;5.10;;;4.40;;
8538;SDS011;4307;53.868;11.680;2023-05-10T04:49:46;5.77;;;4.33;;
8538;SDS011;4307;53.868;11.680;2023-05-10T04:52:13;5.70;;;4.50;;
8538;SDS011;4307;53.868;11.680;2023-05-10T04:54:42;4.67;;;4.27;;
8538;SDS011;4307;53.868;11.680;2023-05-10T04:57:09;6.57;;;5.00;;
8538;SDS011;4307;53.868;11.680;2023-05-10T04:59:36;7.13;;;4.97;;
8538;SDS011;4307;53.868;11.680;2023-05-10T05:02:02;6.23;;;4.60;;
8538;SDS011;4307;53.868;11.680;2023-05-10T05:04:29;5.97;;;4.53;;
8538;SDS011;4307;53.868;11.680;2023-05-10T05:06:56;5.87;;;4.63;;
8538;SDS011;4307;53.868;11.680;2023-05-10T05:09:23;5.93;;;4.37;;
8538;SDS011;4307;53.868;11.680;2023-05-10T05:11:51;6.03;;;4.43;;
8538;SDS011;4307;53.868;11.680;2023-05-10T05:14:17;4.83;;;4.33;;
8538;SDS011;4307;53.868;11.680;2023-05-10T05:16:45;4.93;;;3.97;;
8538;SDS011;4307;53.868;11.680;2023-05-10T05:19:12;7.57;;;4.50;;
8538;SDS011;4307;53.868;11.680;2023-05-10T05:21:39;5.87;;;4.50;;
8538;SDS011;4307;53.868;11.680;2023-05-10T05:24:06;4.80;;;4.10;;
8538;SDS011;4307;53.868;11.680;2023-05-10T05:26:33;5.63;;;4.57;;
8538;SDS011;4307;53.868;11.680;2023-05-10T05:29:01;6.03;;;4.93;;
8538;SDS011;4307;53.868;11.680;2023-05-10T05:31:28;4.97;;;4.23;;
8538;SDS011;4307;53.868;11.680;2023-05-10T05:33:55;7.17;;;4.47;;
8538;SDS011;4307;53.868;11.680;2023-05-10T05:36:22;5.77;;;4.50;;
8538;SDS011;4307;53.868;11.680;2023-05-10T05:38:48;5.17;;;4.20;;
8538;SDS011;4307;53.868;11.680;2023-05-10T05:41:15;5.17;;;4.63;;
8538;SDS011;4307;53.868;11.680;2023-05-10T05:43:42;4.70;;;4.20;;
8538;SDS011;4307;53.868;11.680;2023-05-10T05:46:10;4.93;;;4.10;;
8538;SDS011;4307;53.868;11.680;2023-05-10T05:48:36;5.13;;;4.43;;
8538;SDS011;4307;53.868;11.680;2023-05-10T05:51:03;4.93;;;4.20;;
8538;SDS011;4307;53.868;11.680;2023-05-10T05:53:30;4.57;;;3.60;;
8538;SDS011;4307;53.868;11.680;2023-05-10T05:55:57;5.13;;;4.37;;
8538;SDS011;4307;53.868;11.680;2023-05-10T05:58:24;5.10;;;4.60;;
8538;SDS011;4307;53.868;11.680;2023-05-10T06:00:52;4.77;;;4.27;;
8538;SDS011;4307;53.868;11.680;2023-05-10T06:03:20;7.13;;;4.40;;
8538;SDS011;4307;53.868;11.680;2023-05-10T06:05:47;5.97;;;4.37;;
8538;SDS011;4307;53.868;11.680;2023-05-10T06:08:15;4.63;;;4.20;;
8538;SDS011;4307;53.868;11.680;2023-05-10T06:10:42;6.50;;;4.13;;
8538;SDS011;4307;53.868;11.680;2023-05-10T06:13:09;5.33;;;4.47;;
8538;SDS011;4307;53.868;11.680;2023-05-10T06:15:36;5.13;;;4.60;;
8538;SDS011;4307;53.868;11.680;2023-05-10T06:18:03;5.80;;;3.80;;
8538;SDS011;4307;53.868;11.680;2023-05-10T06:20:32;8.20;;;4.47;;
8538;SDS011;4307;53.868;11.680;2023-05-10T06:22:58;8.17;;;4.67;;
8538;SDS011;4307;53.868;11.680;2023-05-10T06:25:25;4.80;;;4.00;;
8538;SDS011;4307;53.868;11.680;2023-05-10T06:27:52;4.57;;;4.13;;
8538;SDS011;4307;53.868;11.680;2023-05-10T06:30:22;6.03;;;4.23;;
8538;SDS011;4307;53.868;11.680;2023-05-10T06:32:52;4.97;;;3.90;;
8538;SDS011;4307;53.868;11.680;2023-05-10T06:35:19;5.70;;;3.90;;
8538;SDS011;4307;53.868;11.680;2023-05-10T06:37:47;3.80;;;3.17;;
8538;SDS011;4307;53.868;11.680;2023-05-10T06:40:14;5.27;;;3.80;;
8538;SDS011;4307;53.868;11.680;2023-05-10T06:42:41;5.93;;;3.60;;
8538;SDS011;4307;53.868;11.680;2023-05-10T06:45:09;4.57;;;4.07;;
8538;SDS011;4307;53.868;11.680;2023-05-10T06:47:37;5.50;;;3.50;;
8538;SDS011;4307;53.868;11.680;2023-05-10T06:50:03;5.37;;;3.50;;
8538;SDS011;4307;53.868;11.680;2023-05-10T06:52:31;5.27;;;3.77;;
8538;SDS011;4307;53.868;11.680;2023-05-10T06:54:59;5.43;;;3.77;;
8538;SDS011;4307;53.868;11.680;2023-05-10T06:57:26;4.57;;;3.50;;
8538;SDS011;4307;53.868;11.680;2023-05-10T06:59:53;3.77;;;3.47;;
8538;SDS011;4307;53.868;11.680;2023-05-10T07:02:21;4.37;;;3.47;;
8538;SDS011;4307;53.868;11.680;2023-05-10T07:04:47;4.90;;;3.60;;
8538;SDS011;4307;53.868;11.680;2023-05-10T07:07:15;3.80;;;3.20;;
8538;SDS011;4307;53.868;11.680;2023-05-10T07:09:41;4.23;;;3.83;;
8538;SDS011;4307;53.868;11.680;2023-05-10T07:12:09;3.80;;;3.50;;
8538;SDS011;4307;53.868;11.680;2023-05-10T07:14:36;4.73;;;3.33;;
8538;SDS011;4307;53.868;11.680;2023-05-10T07:17:03;5.97;;;3.73;;
8538;SDS011;4307;53.868;11.680;2023-05-10T07:19:29;4.33;;;3.40;;
8538;SDS011;4307;53.868;11.680;2023-05-10T07:21:57;3.83;;;3.43;;
8538;SDS011;4307;53.868;11.680;2023-05-10T07:24:24;4.20;;;3.80;;
8538;SDS011;4307;53.868;11.680;2023-05-10T07:26:50;3.60;;;3.30;;
8538;SDS011;4307;53.868;11.680;2023-05-10T07:29:18;4.77;;;3.50;;
8538;SDS011;4307;53.868;11.680;2023-05-10T07:31:45;5.37;;;3.60;;
8538;SDS011;4307;53.868;11.680;2023-05-10T07:34:12;3.30;;;3.00;;
8538;SDS011;4307;53.868;11.680;2023-05-10T07:36:38;5.10;;;3.40;;
8538;SDS011;4307;53.868;11.680;2023-05-10T07:39:05;5.10;;;3.23;;
8538;SDS011;4307;53.868;11.680;2023-05-10T07:41:32;5.07;;;3.50;;
8538;SDS011;4307;53.868;11.680;2023-05-10T07:43:59;4.10;;;3.60;;
8538;SDS011;4307;53.868;11.680;2023-05-10T07:46:27;4.67;;;3.57;;
8538;SDS011;4307;53.868;11.680;2023-05-10T07:48:54;4.63;;;3.73;;
8538;SDS011;4307;53.868;11.680;2023-05-10T07:51:20;5.27;;;3.43;;
8538;SDS011;4307;53.868;11.680;2023-05-10T07:53:47;5.00;;;3.80;;
8538;SDS011;4307;53.868;11.680;2023-05-10T07:56:20;3.70;;;3.40;;
8538;SDS011;4307;53.868;11.680;2023-05-10T07:58:49;3.33;;;3.03;;
8538;SDS011;4307;53.868;11.680;2023-05-10T08:01:16;3.50;;;3.17;;
8538;SDS011;4307;53.868;11.680;2023-05-10T08:03:44;5.07;;;3.30;;
8538;SDS011;4307;53.868;11.680;2023-05-10T08:06:11;5.03;;;3.50;;
8538;SDS011;4307;53.868;11.680;2023-05-10T08:08:37;4.00;;;3.33;;
8538;SDS011;4307;53.868;11.680;2023-05-10T08:11:04;4.90;;;3.20;;
8538;SDS011;4307;53.868;11.680;2023-05-10T08:13:31;5.73;;;3.27;;
8538;SDS011;4307;53.868;11.680;2023-05-10T08:15:57;3.73;;;3.43;;
8538;SDS011;4307;53.868;11.680;2023-05-10T08:18:24;4.23;;;3.40;;
8538;SDS011;4307;53.868;11.680;2023-05-10T08:20:52;5.17;;;3.90;;
8538;SDS011;4307;53.868;11.680;2023-05-10T08:23:19;5.23;;;2.90;;
8538;SDS011;4307;53.868;11.680;2023-05-10T08:25:45;6.23;;;3.67;;
8538;SDS011;4307;53.868;11.680;2023-05-10T08:28:12;3.50;;;3.20;;
8538;SDS011;4307;53.868;11.680;2023-05-10T08:30:39;5.17;;;3.27;;
8538;SDS011;4307;53.868;11.680;2023-05-10T08:33:05;5.63;;;3.57;;
8538;SDS011;4307;53.868;11.680;2023-05-10T08:35:32;3.20;;;2.90;;
8538;SDS011;4307;53.868;11.680;2023-05-10T08:38:01;6.70;;;3.60;;
8538;SDS011;4307;53.868;11.680;2023-05-10T08:40:28;5.33;;;3.50;;
8538;SDS011;4307;53.868;11.680;2023-05-10T08:42:55;5.70;;;3.47;;
8538;SDS011;4307;53.868;11.680;2023-05-10T08:45:28;7.97;;;3.60;;
8538;SDS011;4307;53.868;11.680;2023-05-10T08:47:59;6.33;;;3.70;;
8538;SDS011;4307;53.868;11.680;2023-05-10T08:50:27;4.67;;;3.57;;
8538;SDS011;4307;53.868;11.680;2023-05-10T08:52:55;3.70;;;3.40;;
8538;SDS011;4307;53.868;11.680;2023-05-10T08:55:27;3.93;;;3.57;;
8538;SDS011;4307;53.868;11.680;2023-05-10T08:57:54;3.93;;;3.20;;
8538;SDS011;4307;53.868;11.680;2023-05-10T09:00:21;4.63;;;3.60;;
8538;SDS011;4307;53.868;11.680;2023-05-10T09:02:49;3.53;;;3.23;;
8538;SDS011;4307;53.868;11.680;2023-05-10T09:05:16;3.67;;;3.23;;
8538;SDS011;4307;53.868;11.680;2023-05-10T09:07:43;3.67;;;3.17;;
8538;SDS011;4307;53.868;11.680;2023-05-10T09:10:10;5.87;;;3.50;;
8538;SDS011;4307;53.868;11.680;2023-05-10T09:12:39;4.33;;;3.47;;
8538;SDS011;4307;53.868;11.680;2023-05-10T09:15:06;3.57;;;3.10;;
8538;SDS011;4307;53.868;11.680;2023-05-10T09:17:35;4.07;;;3.40;;
8538;SDS011;4307;53.868;11.680;2023-05-10T09:20:03;4.17;;;3.73;;
8538;SDS011;4307;53.868;11.680;2023-05-10T09:22:31;5.07;;;3.40;;
8538;SDS011;4307;53.868;11.680;2023-05-10T09:25:08;4.63;;;3.80;;
8538;SDS011;4307;53.868;11.680;2023-05-10T09:27:36;3.60;;;3.30;;
8538;SDS011;4307;53.868;11.680;2023-05-10T09:30:06;3.80;;;3.50;;
8538;SDS011;4307;53.868;11.680;2023-05-10T09:32:36;6.93;;;3.50;;
8538;SDS011;4307;53.868;11.680;2023-05-10T09:35:10;3.50;;;3.20;;
8538;SDS011;4307;53.868;11.680;2023-05-10T09:37:38;5.33;;;3.43;;
8538;SDS011;4307;53.868;11.680;2023-05-10T09:40:07;3.77;;;3.17;;
8538;SDS011;4307;53.868;11.680;2023-05-10T09:42:37;6.20;;;3.50;;
8538;SDS011;4307;53.868;11.680;2023-05-10T09:45:06;5.37;;;3.87;;
8538;SDS011;4307;53.868;11.680;2023-05-10T09:47:33;4.07;;;3.13;;
8538;SDS011;4307;53.868;11.680;2023-05-10T09:50:01;5.00;;;3.47;;
8538;SDS011;4307;53.868;11.680;2023-05-10T09:52:29;4.43;;;3.53;;
8538;SDS011;4307;53.868;11.680;2023-05-10T09:54:57;4.33;;;3.90;;
8538;SDS011;4307;53.868;11.680;2023-05-10T09:57:24;3.77;;;3.43;;
8538;SDS011;4307;53.868;11.680;2023-05-10T09:59:51;4.17;;;3.73;;
8538;SDS011;4307;53.868;11.680;2023-05-10T10:02:20;3.87;;;3.53;;
8538;SDS011;4307;53.868;11.680;2023-05-10T10:04:54;5.93;;;4.17;;
8538;SDS011;4307;53.868;11.680;2023-05-10T10:07:22;3.57;;;3.27;;
8538;SDS011;4307;53.868;11.680;2023-05-10T10:09:50;5.50;;;4.20;;
8538;SDS011;4307;53.868;11.680;2023-05-10T10:12:17;3.90;;;3.50;;
8538;SDS011;4307;53.868;11.680;2023-05-10T10:14:45;4.17;;;3.77;;
8538;SDS011;4307;53.868;11.680;2023-05-10T10:17:12;6.13;;;3.67;;
8538;SDS011;4307;53.868;11.680;2023-05-10T10:19:41;4.10;;;3.70;;
8538;SDS011;4307;53.868;11.680;2023-05-10T10:22:09;3.97;;;3.50;;
8538;SDS011;4307;53.868;11.680;2023-05-10T10:24:37;4.43;;;3.77;;
8538;SDS011;4307;53.868;11.680;2023-05-10T10:27:08;4.03;;;3.60;;
8538;SDS011;4307;53.868;11.680;2023-05-10T10:29:44;7.90;;;3.57;;
8538;SDS011;4307;53.868;11.680;2023-05-10T10:32:19;4.07;;;3.60;;
8538;SDS011;4307;53.868;11.680;2023-05-10T10:34:53;4.73;;;3.50;;
8538;SDS011;4307;53.868;11.680;2023-05-10T10:37:21;3.60;;;3.30;;
8538;SDS011;4307;53.868;11.680;2023-05-10T10:39:47;5.03;;;3.90;;
8538;SDS011;4307;53.868;11.680;2023-05-10T10:42:15;4.57;;;3.53;;
8538;SDS011;4307;53.868;11.680;2023-05-10T10:45:12;7.27;;;3.57;;
8538;SDS011;4307;53.868;11.680;2023-05-10T10:47:39;3.97;;;3.47;;
8538;SDS011;4307;53.868;11.680;2023-05-10T10:50:09;4.00;;;3.60;;
8538;SDS011;4307;53.868;11.680;2023-05-10T10:52:37;6.43;;;3.87;;
8538;SDS011;4307;53.868;11.680;2023-05-10T10:55:05;3.90;;;3.40;;
8538;SDS011;4307;53.868;11.680;2023-05-10T10:57:42;4.93;;;3.77;;
8538;SDS011;4307;53.868;11.680;2023-05-10T11:00:26;4.67;;;3.93;;
8538;SDS011;4307;53.868;11.680;2023-05-10T11:02:55;7.60;;;3.90;;
8538;SDS011;4307;53.868;11.680;2023-05-10T11:05:35;4.83;;;3.93;;
8538;SDS011;4307;53.868;11.680;2023-05-10T11:08:06;3.47;;;3.17;;
8538;SDS011;4307;53.868;11.680;2023-05-10T11:10:35;3.93;;;3.37;;
8538;SDS011;4307;53.868;11.680;2023-05-10T11:13:02;4.30;;;3.43;;
8538;SDS011;4307;53.868;11.680;2023-05-10T11:15:30;7.73;;;4.00;;
8538;SDS011;4307;53.868;11.680;2023-05-10T11:17:58;4.50;;;3.57;;
8538;SDS011;4307;53.868;11.680;2023-05-10T11:20:26;3.87;;;3.57;;
8538;SDS011;4307;53.868;11.680;2023-05-10T11:23:10;4.17;;;3.67;;
8538;SDS011;4307;53.868;11.680;2023-05-10T11:25:40;4.43;;;4.03;;
8538;SDS011;4307;53.868;11.680;2023-05-10T11:28:08;5.57;;;3.83;;
8538;SDS011;4307;53.868;11.680;2023-05-10T11:30:37;5.43;;;3.93;;
8538;SDS011;4307;53.868;11.680;2023-05-10T11:33:05;5.50;;;4.03;;
8538;SDS011;4307;53.868;11.680;2023-05-10T11:35:36;4.00;;;3.70;;
8538;SDS011;4307;53.868;11.680;2023-05-10T11:38:06;4.37;;;3.97;;
8538;SDS011;4307;53.868;11.680;2023-05-10T11:40:33;5.57;;;4.10;;
8538;SDS011;4307;53.868;11.680;2023-05-10T11:43:00;4.07;;;3.73;;
8538;SDS011;4307;53.868;11.680;2023-05-10T11:45:27;5.73;;;4.37;;
8538;SDS011;4307;53.868;11.680;2023-05-10T11:47:54;4.77;;;4.27;;
8538;SDS011;4307;53.868;11.680;2023-05-10T11:50:21;4.13;;;3.83;;
8538;SDS011;4307;53.868;11.680;2023-05-10T11:52:50;4.37;;;3.97;;
8538;SDS011;4307;53.868;11.680;2023-05-10T11:55:18;5.63;;;4.10;;
8538;SDS011;4307;53.868;11.680;2023-05-10T11:57:45;4.90;;;4.40;;
8538;SDS011;4307;53.868;11.680;2023-05-10T12:00:12;4.40;;;4.00;;
8538;SDS011;4307;53.868;11.680;2023-05-10T12:02:39;5.07;;;4.53;;
8538;SDS011;4307;53.868;11.680;2023-05-10T12:05:06;6.73;;;4.37;;
8538;SDS011;4307;53.868;11.680;2023-05-10T12:07:34;4.50;;;4.00;;
8538;SDS011;4307;53.868;11.680;2023-05-10T12:10:05;7.87;;;4.23;;
8538;SDS011;4307;53.868;11.680;2023-05-10T12:12:40;5.40;;;4.47;;
8538;SDS011;4307;53.868;11.680;2023-05-10T12:15:11;4.50;;;3.90;;
8538;SDS011;4307;53.868;11.680;2023-05-10T12:17:43;5.70;;;3.97;;
8538;SDS011;4307;53.868;11.680;2023-05-10T12:20:14;10.83;;;4.87;;
8538;SDS011;4307;53.868;11.680;2023-05-10T12:22:43;5.03;;;4.13;;
8538;SDS011;4307;53.868;11.680;2023-05-10T12:25:11;7.53;;;4.20;;
8538;SDS011;4307;53.868;11.680;2023-05-10T12:27:37;5.97;;;4.00;;
8538;SDS011;4307;53.868;11.680;2023-05-10T12:30:06;5.07;;;3.77;;
8538;SDS011;4307;53.868;11.680;2023-05-10T12:32:37;5.23;;;3.90;;
8538;SDS011;4307;53.868;11.680;2023-05-10T12:35:04;3.97;;;3.60;;
8538;SDS011;4307;53.868;11.680;2023-05-10T12:37:32;5.33;;;4.23;;
8538;SDS011;4307;53.868;11.680;2023-05-10T12:40:01;7.47;;;3.83;;
8538;SDS011;4307;53.868;11.680;2023-05-10T12:42:29;5.30;;;4.37;;
8538;SDS011;4307;53.868;11.680;2023-05-10T12:44:57;5.00;;;4.50;;
8538;SDS011;4307;53.868;11.680;2023-05-10T12:47:25;5.00;;;4.50;;
8538;SDS011;4307;53.868;11.680;2023-05-10T12:49:51;5.53;;;3.87;;
8538;SDS011;4307;53.868;11.680;2023-05-10T12:52:18;4.43;;;4.03;;
8538;SDS011;4307;53.868;11.680;2023-05-10T12:54:45;5.43;;;3.87;;
8538;SDS011;4307;53.868;11.680;2023-05-10T12:57:12;4.43;;;4.03;;
8538;SDS011;4307;53.868;11.680;2023-05-10T12:59:39;4.60;;;4.07;;
8538;SDS011;4307;53.868;11.680;2023-05-10T13:02:05;4.63;;;4.23;;
8538;SDS011;4307;53.868;11.680;2023-05-10T13:04:34;5.33;;;4.50;;
8538;SDS011;4307;53.868;11.680;2023-05-10T13:07:02;5.30;;;4.17;;
8538;SDS011;4307;53.868;11.680;2023-05-10T13:09:29;4.50;;;4.00;;
8538;SDS011;4307;53.868;11.680;2023-05-10T13:11:55;6.87;;;4.83;;
8538;SDS011;4307;53.868;11.680;2023-05-10T13:14:22;6.10;;;4.20;;
8538;SDS011;4307;53.868;11.680;2023-05-10T13:16:49;7.10;;;4.50;;
8538;SDS011;4307;53.868;11.680;2023-05-10T13:19:16;7.53;;;4.70;;
8538;SDS011;4307;53.868;11.680;2023-05-10T13:21:44;13.40;;;4.80;;
8538;SDS011;4307;53.868;11.680;2023-05-10T13:24:11;5.73;;;4.17;;
8538;SDS011;4307;53.868;11.680;2023-05-10T13:26:38;5.37;;;4.87;;
8538;SDS011;4307;53.868;11.680;2023-05-10T13:29:05;5.23;;;4.70;;
8538;SDS011;4307;53.868;11.680;2023-05-10T13:31:32;4.83;;;4.20;;
8538;SDS011;4307;53.868;11.680;2023-05-10T13:33:59;5.13;;;4.63;;
8538;SDS011;4307;53.868;11.680;2023-05-10T13:36:26;4.90;;;4.40;;
8538;SDS011;4307;53.868;11.680;2023-05-10T13:38:54;6.60;;;4.60;;
8538;SDS011;4307;53.868;11.680;2023-05-10T13:41:22;7.60;;;4.50;;
8538;SDS011;4307;53.868;11.680;2023-05-10T13:43:48;4.87;;;4.30;;
8538;SDS011;4307;53.868;11.680;2023-05-10T13:46:15;6.73;;;4.40;;
8538;SDS011;4307;53.868;11.680;2023-05-10T13:48:42;5.90;;;4.23;;
8538;SDS011;4307;53.868;11.680;2023-05-10T13:51:08;5.33;;;4.77;;
8538;SDS011;4307;53.868;11.680;2023-05-10T13:53:35;4.80;;;4.40;;
8538;SDS011;4307;53.868;11.680;2023-05-10T13:56:03;5.13;;;4.63;;
8538;SDS011;4307;53.868;11.680;2023-05-10T13:58:30;6.57;;;4.67;;
8538;SDS011;4307;53.868;11.680;2023-05-10T14:00:57;4.97;;;4.57;;
8538;SDS011;4307;53.868;11.680;2023-05-10T14:03:23;5.93;;;4.20;;
8538;SDS011;4307;53.868;11.680;2023-05-10T14:05:50;4.90;;;4.37;;
8538;SDS011;4307;53.868;11.680;2023-05-10T14:08:17;7.30;;;5.00;;
8538;SDS011;4307;53.868;11.680;2023-05-10T14:10:43;5.27;;;3.90;;
8538;SDS011;4307;53.868;11.680;2023-05-10T14:13:11;5.90;;;4.37;;
8538;SDS011;4307;53.868;11.680;2023-05-10T14:15:38;4.53;;;4.13;;
8538;SDS011;4307;53.868;11.680;2023-05-10T14:18:05;4.43;;;4.03;;
8538;SDS011;4307;53.868;11.680;2023-05-10T14:20:31;4.30;;;3.90;;
8538;SDS011;4307;53.868;11.680;2023-05-10T14:22:58;5.10;;;4.40;;
8538;SDS011;4307;53.868;11.680;2023-05-10T14:25:25;7.53;;;4.87;;
8538;SDS011;4307;53.868;11.680;2023-05-10T14:27:53;6.37;;;3.90;;
8538;SDS011;4307;53.868;11.680;2023-05-10T14:30:21;4.63;;;4.23;;
8538;SDS011;4307;53.868;11.680;2023-05-10T14:32:47;5.57;;;4.53;;
8538;SDS011;4307;53.868;11.680;2023-05-10T14:35:14;4.50;;;4.10;;
8538;SDS011;4307;53.868;11.680;2023-05-10T14:37:41;6.03;;;4.33;;
8538;SDS011;4307;53.868;11.680;2023-05-10T14:40:08;4.53;;;4.10;;
8538;SDS011;4307;53.868;11.680;2023-05-10T14:42:35;4.60;;;4.00;;
8538;SDS011;4307;53.868;11.680;2023-05-10T14:45:02;4.50;;;3.93;;
8538;SDS011;4307;53.868;11.680;2023-05-10T14:47:30;7.87;;;4.43;;
8538;SDS011;4307;53.868;11.680;2023-05-10T14:49:57;4.73;;;4.33;;
8538;SDS011;4307;53.868;11.680;2023-05-10T14:52:23;4.63;;;4.23;;
8538;SDS011;4307;53.868;11.680;2023-05-10T14:54:50;6.73;;;4.47;;
8538;SDS011;4307;53.868;11.680;2023-05-10T14:57:17;4.63;;;4.23;;
8538;SDS011;4307;53.868;11.680;2023-05-10T14:59:44;4.77;;;4.10;;
8538;SDS011;4307;53.868;11.680;2023-05-10T15:02:10;6.10;;;4.53;;
8538;SDS011;4307;53.868;11.680;2023-05-10T15:04:39;3.93;;;3.63;;
8538;SDS011;4307;53.868;11.680;2023-05-10T15:07:06;6.30;;;4.23;;